Time;durP1;ratioP1;P1;durP2;ratioP2;P2;SDS_P1;SDS_P2;PMS_P1;PMS_P2;Temp;Humidity;BMP_temperature;BMP_pressure;BME280_temperature;BME280_humidity;BME280_pressure;Samples;Min_cycle;Max_cycle;Signal;HPM_P1;HPM_P2
2020/12/14 00:00:11;;;;;;;8.95;5.03;;;5.40;99.90;;;;;;4977026;28;20027;-68
2020/12/14 00:02:39;;;;;;;10.32;5.97;;;5.40;99.90;;;;;;4978389;28;20427;-68
2020/12/14 00:05:07;;;;;;;14.98;5.60;;;5.40;99.90;;;;;;4981940;28;20347;-68
2020/12/14 00:07:36;;;;;;;9.85;5.57;;;5.30;99.90;;;;;;4981660;28;20101;-68
2020/12/14 00:10:04;;;;;;;9.65;5.25;;;5.30;99.90;;;;;;4996293;28;20316;-67
2020/12/14 00:12:32;;;;;;;16.80;6.50;;;5.30;99.90;;;;;;4981308;28;20045;-68
2020/12/14 00:15:00;;;;;;;10.30;6.50;;;5.30;99.90;;;;;;4980959;28;20033;-68
2020/12/14 00:17:28;;;;;;;10.95;5.63;;;5.20;99.90;;;;;;4981193;28;20038;-68
2020/12/14 00:19:55;;;;;;;9.23;5.30;;;5.20;99.90;;;;;;4981712;28;20054;-68
2020/12/14 00:22:22;;;;;;;11.18;5.25;;;5.20;99.90;;;;;;4981161;28;20015;-68
2020/12/14 00:24:50;;;;;;;9.68;5.22;;;5.20;99.90;;;;;;4981403;28;20022;-68
2020/12/14 00:27:18;;;;;;;11.52;4.75;;;5.10;99.90;;;;;;4995965;28;20084;-68
2020/12/14 00:29:46;;;;;;;7.20;4.03;;;5.10;99.90;;;;;;4980860;28;20029;-68
2020/12/14 00:32:13;;;;;;;9.20;4.40;;;5.10;99.90;;;;;;4981244;28;20030;-68
2020/12/14 00:34:41;;;;;;;9.88;4.90;;;5.10;99.90;;;;;;4979734;28;20026;-68
2020/12/14 00:37:09;;;;;;;8.38;4.07;;;5.10;99.90;;;;;;4980489;28;20441;-68
2020/12/14 00:39:37;;;;;;;10.05;5.25;;;5.10;99.90;;;;;;4980735;28;20031;-68
2020/12/14 00:42:05;;;;;;;7.30;3.92;;;5.00;99.90;;;;;;4995640;28;20063;-68
2020/12/14 00:44:33;;;;;;;12.20;4.90;;;5.00;99.90;;;;;;4995627;28;20023;-68
2020/12/14 00:47:01;;;;;;;8.65;3.85;;;5.00;99.90;;;;;;4980425;28;20034;-68
2020/12/14 00:49:28;;;;;;;7.80;3.72;;;4.90;99.90;;;;;;4995720;28;20038;-68
2020/12/14 00:51:57;;;;;;;8.52;4.10;;;4.90;99.90;;;;;;4995492;28;20081;-68
2020/12/14 00:54:25;;;;;;;6.93;3.78;;;4.90;99.90;;;;;;4980297;28;20035;-68
2020/12/14 00:56:52;;;;;;;7.57;3.33;;;4.80;99.90;;;;;;4980733;28;20403;-68
2020/12/14 00:59:20;;;;;;;7.28;3.78;;;4.80;99.90;;;;;;4980512;28;20082;-68
2020/12/14 01:01:52;;;;;;;9.38;3.75;;;4.70;99.90;;;;;;4995009;28;20043;-68
2020/12/14 01:04:21;;;;;;;8.60;3.95;;;4.70;99.90;;;;;;4980114;28;20055;-68
2020/12/14 01:06:52;;;;;;;7.05;3.55;;;4.70;99.90;;;;;;4980023;28;20030;-68
2020/12/14 01:09:21;;;;;;;9.73;4.20;;;4.70;99.90;;;;;;4980135;28;20490;-68
2020/12/14 01:11:50;;;;;;;9.48;3.97;;;4.60;99.90;;;;;;4980212;28;20090;-68
2020/12/14 01:14:17;;;;;;;8.38;3.90;;;4.60;99.90;;;;;;4978990;28;20030;-68
2020/12/14 01:16:48;;;;;;;8.25;3.65;;;4.60;99.90;;;;;;4994964;28;20030;-68
2020/12/14 01:19:16;;;;;;;8.43;3.90;;;4.50;99.90;;;;;;4979965;28;20062;-68
2020/12/14 01:21:45;;;;;;;7.72;3.65;;;4.50;99.90;;;;;;4979748;28;20026;-68
2020/12/14 01:24:12;;;;;;;7.03;3.38;;;4.50;99.90;;;;;;4979719;28;20101;-68
2020/12/14 01:26:40;;;;;;;7.13;3.17;;;4.50;99.90;;;;;;4979717;28;20022;-68
2020/12/14 01:29:08;;;;;;;8.63;3.45;;;4.50;99.90;;;;;;4979596;28;20027;-68
2020/12/14 01:31:36;;;;;;;10.13;4.15;;;4.50;99.90;;;;;;4979886;28;20038;-68
2020/12/14 01:34:04;;;;;;;7.68;3.10;;;4.50;99.90;;;;;;4979699;28;20046;-68
2020/12/14 01:36:32;;;;;;;11.63;3.45;;;4.40;99.90;;;;;;4979704;28;20423;-68
2020/12/14 01:39:00;;;;;;;8.48;3.08;;;4.40;99.90;;;;;;4980039;28;20057;-68
2020/12/14 01:41:27;;;;;;;5.03;2.88;;;4.40;99.90;;;;;;4978979;28;20423;-68
2020/12/14 01:43:54;;;;;;;6.57;2.88;;;4.40;99.90;;;;;;4979775;28;20049;-68
2020/12/14 01:46:31;;;;;;;12.80;3.60;;;4.40;99.90;;;;;;4979323;28;20015;-68
2020/12/14 01:49:00;;;;;;;10.23;3.25;;;4.40;99.90;;;;;;4979224;28;20034;-68
2020/12/14 01:51:31;;;;;;;6.80;3.53;;;4.40;99.90;;;;;;4979221;28;20387;-68
2020/12/14 01:53:59;;;;;;;10.52;4.65;;;4.40;99.90;;;;;;4979186;28;20327;-68
2020/12/14 01:56:27;;;;;;;11.68;3.60;;;4.40;99.90;;;;;;4979354;28;20122;-68
2020/12/14 01:58:54;;;;;;;8.05;4.03;;;4.40;99.90;;;;;;4994504;28;20117;-68
2020/12/14 02:01:22;;;;;;;10.07;4.00;;;4.40;99.90;;;;;;4977767;28;20053;-68
2020/12/14 02:03:49;;;;;;;8.13;2.95;;;4.50;99.90;;;;;;4979062;28;20027;-68
2020/12/14 02:06:16;;;;;;;5.93;2.58;;;4.50;99.90;;;;;;4979509;28;20119;-68
2020/12/14 02:08:44;;;;;;;9.00;2.58;;;4.50;99.90;;;;;;4978711;28;20015;-68
2020/12/14 02:11:12;;;;;;;10.77;2.70;;;4.50;99.90;;;;;;4979105;28;20415;-68
2020/12/14 02:13:39;;;;;;;5.63;3.08;;;4.60;99.90;;;;;;4979562;28;20327;-68
2020/12/14 02:16:07;;;;;;;11.25;3.15;;;4.60;99.90;;;;;;4978769;28;20050;-68
2020/12/14 02:18:34;;;;;;;7.10;3.25;;;4.60;99.90;;;;;;4978821;28;20027;-68
2020/12/14 02:21:01;;;;;;;8.48;3.13;;;4.60;99.90;;;;;;4993831;28;20031;-68
2020/12/14 02:23:29;;;;;;;7.75;3.53;;;4.70;99.90;;;;;;4978614;28;20078;-68
2020/12/14 02:25:57;;;;;;;5.07;2.72;;;4.70;99.90;;;;;;4978490;28;20026;-68
2020/12/14 02:28:24;;;;;;;7.47;3.00;;;4.80;99.90;;;;;;4979219;28;20089;-68
2020/12/14 02:30:52;;;;;;;6.07;2.90;;;4.80;99.90;;;;;;4978418;28;20102;-68
2020/12/14 02:33:20;;;;;;;6.88;3.38;;;4.90;99.90;;;;;;4978516;28;20069;-68
2020/12/14 02:35:48;;;;;;;8.18;3.08;;;5.00;99.90;;;;;;4993586;28;20031;-68
2020/12/14 02:38:16;;;;;;;7.60;3.17;;;5.00;99.90;;;;;;4978509;28;20027;-68
2020/12/14 02:40:43;;;;;;;7.60;3.00;;;5.10;99.90;;;;;;4978906;28;20098;-68
2020/12/14 02:43:11;;;;;;;11.35;2.30;;;5.10;99.90;;;;;;4978283;28;20026;-68
2020/12/14 02:45:38;;;;;;;10.43;3.70;;;5.10;99.90;;;;;;4978251;28;20049;-68
2020/12/14 02:48:06;;;;;;;5.95;2.30;;;5.20;99.90;;;;;;4978401;28;20030;-68
2020/12/14 02:50:35;;;;;;;8.38;3.15;;;5.20;99.90;;;;;;4978175;28;20025;-68
2020/12/14 02:53:05;;;;;;;5.93;2.92;;;5.20;99.90;;;;;;4977247;28;20033;-68
2020/12/14 02:55:33;;;;;;;4.78;2.75;;;5.20;99.90;;;;;;4978366;28;20040;-68
2020/12/14 02:58:02;;;;;;;6.72;3.17;;;5.30;99.90;;;;;;4978088;28;20328;-68
2020/12/14 03:00:29;;;;;;;6.68;2.42;;;5.30;99.90;;;;;;4977932;28;20050;-68
2020/12/14 03:02:57;;;;;;;4.70;2.33;;;5.30;99.90;;;;;;4977069;28;20118;-68
2020/12/14 03:05:25;;;;;;;6.25;2.85;;;5.30;99.90;;;;;;4977968;28;20114;-68
2020/12/14 03:07:52;;;;;;;6.20;3.20;;;5.30;99.90;;;;;;4977967;28;20019;-68
2020/12/14 03:10:19;;;;;;;9.73;4.00;;;5.40;99.90;;;;;;4976915;28;20027;-68
2020/12/14 03:12:46;;;;;;;6.50;2.90;;;5.30;99.90;;;;;;4977856;28;20035;-68
2020/12/14 03:15:14;;;;;;;11.50;3.40;;;5.40;99.90;;;;;;4977822;28;20033;-68
2020/12/14 03:17:41;;;;;;;11.02;4.05;;;5.40;99.90;;;;;;4977786;28;20062;-68
2020/12/14 03:20:10;;;;;;;7.13;3.00;;;5.40;99.90;;;;;;4978333;28;20407;-68
2020/12/14 03:22:38;;;;;;;7.70;3.83;;;5.40;99.90;;;;;;4977949;28;20382;-68
2020/12/14 03:25:05;;;;;;;7.22;4.15;;;5.40;99.90;;;;;;4960853;28;20018;-68
2020/12/14 03:27:32;;;;;;;8.02;3.08;;;5.40;99.90;;;;;;4992882;28;20031;-68
2020/12/14 03:30:00;;;;;;;7.28;3.80;;;5.40;99.90;;;;;;4977594;28;20054;-68
2020/12/14 03:32:28;;;;;;;6.68;3.42;;;5.40;99.90;;;;;;4977795;28;20065;-68
2020/12/14 03:34:56;;;;;;;8.30;3.28;;;5.50;99.90;;;;;;4977634;28;20030;-68
2020/12/14 03:37:27;;;;;;;7.47;3.60;;;5.50;99.90;;;;;;4978216;28;20434;-68
2020/12/14 03:39:55;;;;;;;8.00;3.72;;;5.50;99.90;;;;;;4982175;28;20023;-68
2020/12/14 03:42:23;;;;;;;6.22;3.30;;;5.50;99.90;;;;;;4981779;28;20015;-68
2020/12/14 03:44:50;;;;;;;14.73;3.40;;;5.60;99.90;;;;;;4981520;28;20110;-68
2020/12/14 03:47:18;;;;;;;8.25;3.40;;;5.60;99.90;;;;;;4980440;28;20023;-68
2020/12/14 03:49:46;;;;;;;7.38;3.22;;;5.70;99.90;;;;;;4981443;28;20023;-68
2020/12/14 03:52:14;;;;;;;6.55;3.20;;;5.70;99.90;;;;;;4981437;28;20023;-68
2020/12/14 03:54:41;;;;;;;4.90;2.80;;;5.70;99.90;;;;;;4981689;28;20122;-68
2020/12/14 03:57:08;;;;;;;6.32;3.00;;;5.70;99.90;;;;;;4981167;28;20030;-68
2020/12/14 03:59:36;;;;;;;12.05;3.72;;;5.70;99.90;;;;;;4981232;28;20165;-68
2020/12/14 04:02:03;;;;;;;8.30;3.22;;;5.70;99.90;;;;;;4981000;28;20495;-68
2020/12/14 04:04:31;;;;;;;8.00;3.05;;;5.80;99.90;;;;;;4981897;28;20422;-68
2020/12/14 04:06:59;;;;;;;8.20;3.25;;;5.80;99.90;;;;;;4981681;28;20027;-68
2020/12/14 04:09:26;;;;;;;5.35;2.75;;;5.80;99.90;;;;;;4981664;28;20034;-68
2020/12/14 04:11:54;;;;;;;7.68;3.35;;;5.80;99.90;;;;;;4981378;28;20054;-68
2020/12/14 04:14:22;;;;;;;6.80;2.90;;;5.80;99.90;;;;;;4981233;28;20038;-68
2020/12/14 04:16:54;;;;;;;10.50;3.53;;;5.80;99.90;;;;;;4980886;28;20019;-68
2020/12/14 04:19:24;;;;;;;8.23;3.08;;;5.80;99.90;;;;;;4996193;28;20046;-68
2020/12/14 04:21:52;;;;;;;8.75;2.90;;;5.80;99.90;;;;;;4981466;28;20047;-68
2020/12/14 04:24:20;;;;;;;8.48;3.15;;;5.80;99.90;;;;;;4981339;28;20019;-68
2020/12/14 04:26:54;;;;;;;8.93;2.75;;;5.70;99.90;;;;;;4980415;28;20441;-68
2020/12/14 04:29:22;;;;;;;8.35;2.63;;;5.70;99.90;;;;;;4980818;28;20026;-68
2020/12/14 04:31:51;;;;;;;6.90;2.58;;;5.70;99.90;;;;;;4980712;28;20046;-68
2020/12/14 04:34:19;;;;;;;5.35;2.75;;;5.70;99.90;;;;;;4981397;28;20332;-68
2020/12/14 04:36:47;;;;;;;9.60;2.80;;;5.80;99.90;;;;;;4995707;28;20054;-68
2020/12/14 04:39:14;;;;;;;7.40;3.22;;;5.80;99.90;;;;;;4980735;28;20034;-68
2020/12/14 04:41:43;;;;;;;7.07;2.58;;;5.80;99.90;;;;;;4979534;28;20057;-68
2020/12/14 04:44:11;;;;;;;3.55;2.00;;;5.80;99.90;;;;;;4980449;28;20027;-68
2020/12/14 04:46:39;;;;;;;7.28;2.38;;;5.90;99.90;;;;;;4980413;28;20433;-68
2020/12/14 04:49:07;;;;;;;6.10;2.35;;;5.90;99.90;;;;;;4994438;28;20335;-68
2020/12/14 04:51:38;;;;;;;5.07;1.90;;;5.90;99.90;;;;;;4980322;28;20038;-68
2020/12/14 04:54:07;;;;;;;4.75;2.15;;;5.90;99.90;;;;;;4979373;28;20477;-68
2020/12/14 04:56:40;;;;;;;6.47;2.67;;;5.90;99.90;;;;;;4980178;28;20027;-68
2020/12/14 04:59:08;;;;;;;9.38;2.45;;;5.90;99.90;;;;;;4980842;28;20046;-68
2020/12/14 05:01:35;;;;;;;6.93;2.65;;;5.80;99.90;;;;;;4979927;28;20051;-68
2020/12/14 05:04:04;;;;;;;6.18;2.05;;;5.80;99.90;;;;;;4995301;28;20026;-68
2020/12/14 05:06:50;;;;;;;8.30;2.10;;;5.80;99.90;;;;;;4980686;28;20019;-68
2020/12/14 05:09:22;;;;;;;5.03;2.37;;;5.80;99.90;;;;;;4980210;28;20030;-68
2020/12/14 05:11:49;;;;;;;3.70;1.92;;;5.70;99.90;;;;;;4979889;28;20250;-68
2020/12/14 05:14:28;;;;;;;6.53;2.17;;;5.70;99.90;;;;;;4979196;28;20030;-68
2020/12/14 05:16:56;;;;;;;4.65;2.20;;;5.70;99.90;;;;;;4979863;28;20387;-68
2020/12/14 05:19:29;;;;;;;6.10;2.88;;;5.70;99.90;;;;;;4980318;28;20023;-68
2020/12/14 05:22:00;;;;;;;8.68;3.42;;;5.70;99.90;;;;;;4994992;28;20338;-68
2020/12/14 05:24:32;;;;;;;4.95;2.15;;;5.70;99.90;;;;;;4980287;28;20045;-68
2020/12/14 05:27:00;;;;;;;5.72;2.55;;;5.70;99.90;;;;;;4979656;28;20027;-68
2020/12/14 05:29:29;;;;;;;4.53;2.30;;;5.70;99.90;;;;;;4979764;28;20050;-68
2020/12/14 05:32:04;;;;;;;8.23;3.10;;;5.70;99.90;;;;;;4979797;28;20035;-68
2020/12/14 05:34:33;;;;;;;8.40;3.50;;;5.70;99.90;;;;;;4980164;28;20135;-68
2020/12/14 05:37:10;;;;;;;10.45;3.28;;;5.70;99.90;;;;;;4979462;28;20031;-68
2020/12/14 05:39:39;;;;;;;6.38;2.60;;;5.70;99.90;;;;;;4979744;28;20288;-68
2020/12/14 05:42:14;;;;;;;10.80;3.85;;;5.80;99.90;;;;;;4979440;28;20094;-68
2020/12/14 05:44:43;;;;;;;11.90;3.75;;;5.80;99.90;;;;;;4979810;28;20319;-68
2020/12/14 05:47:24;;;;;;;6.53;2.42;;;5.90;99.90;;;;;;4994472;28;20026;-68
2020/12/14 05:49:53;;;;;;;8.30;2.85;;;5.90;99.90;;;;;;4979645;28;20363;-68
2020/12/14 05:52:25;;;;;;;6.43;3.00;;;6.00;99.90;;;;;;4979392;28;20038;-68
2020/12/14 05:54:56;;;;;;;6.10;2.83;;;6.00;99.90;;;;;;4979124;28;20423;-68
2020/12/14 05:57:29;;;;;;;5.97;2.35;;;6.00;99.90;;;;;;4979044;28;20034;-68
2020/12/14 06:00:16;;;;;;;6.13;2.42;;;6.10;99.90;;;;;;4978743;28;20098;-68
2020/12/14 06:02:43;;;;;;;2.92;1.70;;;6.10;99.90;;;;;;4978571;28;20371;-68
2020/12/14 06:05:11;;;;;;;7.25;2.25;;;6.10;99.90;;;;;;4978003;28;20026;-68
2020/12/14 06:07:39;;;;;;;2.75;1.45;;;6.10;99.90;;;;;;4978944;28;20322;-68
2020/12/14 06:10:15;;;;;;;6.05;2.53;;;6.20;99.90;;;;;;4978894;28;20366;-68
2020/12/14 06:12:47;;;;;;;4.47;1.95;;;6.20;99.90;;;;;;4979742;28;20105;-68
2020/12/14 06:15:18;;;;;;;4.90;2.05;;;6.20;99.90;;;;;;4979103;28;20355;-68
2020/12/14 06:17:46;;;;;;;3.78;1.50;;;6.20;99.90;;;;;;4978749;28;20027;-68
2020/12/14 06:20:23;;;;;;;4.80;1.60;;;6.20;99.90;;;;;;4978929;28;20019;-68
2020/12/14 06:23:05;;;;;;;4.82;1.88;;;6.20;99.90;;;;;;4978859;28;20058;-68
2020/12/14 06:25:33;;;;;;;3.80;1.15;;;6.20;99.90;;;;;;4979160;28;20099;-68
2020/12/14 06:28:31;;;;;;;2.53;1.00;;;6.20;99.90;;;;;;4979103;28;20023;-68
2020/12/14 06:30:59;;;;;;;4.30;1.88;;;6.20;99.90;;;;;;4978522;28;20023;-68
2020/12/14 06:33:39;;;;;;;3.85;1.58;;;6.20;99.90;;;;;;4978684;28;20126;-68
2020/12/14 06:36:25;;;;;;;4.47;1.23;;;6.30;99.90;;;;;;4978417;28;20073;-68
2020/12/14 06:38:54;;;;;;;3.10;1.33;;;6.30;99.90;;;;;;4978275;28;20023;-68
2020/12/14 06:41:23;;;;;;;4.88;1.48;;;6.30;99.90;;;;;;4978871;28;20422;-68
2020/12/14 06:44:09;;;;;;;5.53;1.60;;;6.30;99.90;;;;;;4978407;28;20105;-68
2020/12/14 06:46:36;;;;;;;2.70;1.50;;;6.30;99.90;;;;;;4978334;28;20030;-68
2020/12/14 06:49:08;;;;;;;6.38;1.67;;;6.30;99.90;;;;;;4977816;28;20026;-68
2020/12/14 06:51:53;;;;;;;3.65;1.48;;;6.40;99.90;;;;;;4978891;28;20031;-68
2020/12/14 06:54:40;;;;;;;1.85;1.05;;;6.30;99.90;;;;;;4993759;28;20427;-68
2020/12/14 06:57:08;;;;;;;3.25;1.33;;;6.30;99.90;;;;;;4978169;28;20034;-68
2020/12/14 06:59:37;;;;;;;5.53;1.48;;;6.30;99.90;;;;;;4977908;28;20383;-67
2020/12/14 07:02:11;;;;;;;2.92;1.13;;;6.40;99.90;;;;;;4977775;28;20480;-67
2020/12/14 07:04:41;;;;;;;6.93;1.97;;;6.40;99.90;;;;;;4978263;28;20031;-69
2020/12/14 07:07:11;;;;;;;5.40;1.38;;;6.40;99.90;;;;;;4977891;28;20027;-70
2020/12/14 07:09:40;;;;;;;5.05;2.20;;;6.40;99.90;;;;;;4978631;28;20319;-70
2020/12/14 07:12:11;;;;;;;9.40;2.75;;;6.40;99.90;;;;;;4977639;28;20041;-68
2020/12/14 07:14:51;;;;;;;7.05;2.63;;;6.40;99.90;;;;;;4977745;28;20059;-69
2020/12/14 07:17:29;;;;;;;6.32;3.15;;;6.30;99.90;;;;;;4977741;28;20094;-69
2020/12/14 07:19:58;;;;;;;8.02;3.13;;;6.30;99.90;;;;;;4977781;28;20026;-68
2020/12/14 07:22:48;;;;;;;10.18;3.15;;;6.30;99.90;;;;;;4977788;28;20025;-69
2020/12/14 07:25:23;;;;;;;5.90;2.60;;;6.30;99.90;;;;;;4977751;28;20023;-68
2020/12/14 07:27:51;;;;;;;4.97;1.55;;;6.30;99.90;;;;;;4977680;28;20031;-68
2020/12/14 07:30:19;;;;;;;3.30;1.75;;;6.30;99.90;;;;;;4992805;28;20384;-69
2020/12/14 07:32:48;;;;;;;2.78;1.70;;;6.30;99.90;;;;;;4978355;28;20077;-69
2020/12/14 07:35:15;;;;;;;1.75;0.90;;;6.20;99.90;;;;;;4976539;28;20446;-69
2020/12/14 07:37:42;;;;;;;6.13;2.20;;;6.30;99.90;;;;;;4978121;28;20359;-69
2020/12/14 07:40:13;;;;;;;3.95;1.85;;;6.20;99.90;;;;;;4976658;28;20023;-69
2020/12/14 07:42:46;;;;;;;4.18;1.70;;;6.20;99.90;;;;;;4978324;28;20023;-68
2020/12/14 07:45:24;;;;;;;3.05;1.80;;;6.20;99.90;;;;;;4977361;28;20015;-69
2020/12/14 07:47:53;;;;;;;4.30;1.90;;;6.20;99.90;;;;;;4977552;28;20033;-68
2020/12/14 07:50:25;;;;;;;5.80;1.60;;;6.20;99.90;;;;;;4977798;28;20030;-69
2020/12/14 07:52:56;;;;;;;2.85;1.20;;;6.20;99.90;;;;;;4978232;28;20134;-71
2020/12/14 07:55:28;;;;;;;3.35;1.45;;;6.20;99.90;;;;;;4976903;28;20431;-68
2020/12/14 07:57:57;;;;;;;1.85;0.90;;;6.20;99.90;;;;;;4993090;28;20027;-68
2020/12/14 08:00:26;;;;;;;1.77;0.82;;;6.20;99.90;;;;;;4977181;28;20126;-66
2020/12/14 08:03:05;;;;;;;3.35;1.60;;;6.30;99.90;;;;;;4977715;28;20481;-69
2020/12/14 08:05:33;;;;;;;6.95;1.80;;;6.30;99.90;;;;;;4978217;28;20035;-70
2020/12/14 08:08:05;;;;;;;5.07;2.50;;;6.40;99.90;;;;;;4977932;28;20023;-67
2020/12/14 08:10:35;;;;;;;7.55;1.73;;;6.50;99.90;;;;;;4977607;28;20046;-66
2020/12/14 08:13:13;;;;;;;5.82;1.60;;;6.50;99.90;;;;;;4977278;28;20371;-68
2020/12/14 08:15:42;;;;;;;6.82;1.42;;;6.60;99.90;;;;;;4977225;28;20118;-67
2020/12/14 08:18:11;;;;;;;2.92;1.20;;;6.60;99.90;;;;;;4976410;28;20030;-67
2020/12/14 08:20:43;;;;;;;2.90;1.48;;;6.60;99.90;;;;;;4977237;28;20254;-67
2020/12/14 08:23:22;;;;;;;3.35;1.40;;;6.60;99.90;;;;;;4992666;28;20019;-71
2020/12/14 08:25:51;;;;;;;4.75;1.70;;;6.70;99.90;;;;;;4980860;28;20050;-67
2020/12/14 08:28:29;;;;;;;5.25;1.60;;;6.70;99.90;;;;;;4980616;28;20332;-67
2020/12/14 08:30:57;;;;;;;3.92;1.52;;;6.80;99.90;;;;;;4980703;28;20096;-67
2020/12/14 08:33:24;;;;;;;3.28;2.00;;;6.80;99.90;;;;;;4995909;28;20034;-67
2020/12/14 08:35:54;;;;;;;2.38;1.00;;;6.80;99.90;;;;;;4980652;28;20055;-68
2020/12/14 08:38:29;;;;;;;3.97;1.15;;;6.80;99.90;;;;;;4980528;28;20031;-67
2020/12/14 08:41:06;;;;;;;3.25;1.25;;;6.90;99.90;;;;;;4980582;28;20030;-67
2020/12/14 08:43:36;;;;;;;7.25;2.20;;;6.90;99.90;;;;;;4980560;28;20023;-67
2020/12/14 08:46:09;;;;;;;3.70;1.60;;;6.90;99.90;;;;;;4980625;28;20050;-67
2020/12/14 08:48:57;;;;;;;3.75;1.63;;;6.90;99.90;;;;;;4980928;28;20106;-67
2020/12/14 08:51:27;;;;;;;6.53;1.98;;;6.90;99.90;;;;;;4980319;28;20035;-67
2020/12/14 08:53:56;;;;;;;5.13;1.60;;;6.90;99.90;;;;;;4995500;28;20023;-67
2020/12/14 08:56:34;;;;;;;6.57;2.22;;;7.00;99.90;;;;;;4980278;28;20046;-67
2020/12/14 08:59:03;;;;;;;5.78;1.45;;;7.00;99.90;;;;;;4979148;28;20064;-67
2020/12/14 09:01:32;;;;;;;6.82;1.80;;;7.00;99.90;;;;;;4979911;28;20343;-67
2020/12/14 09:04:02;;;;;;;5.78;2.20;;;7.10;99.90;;;;;;4980720;28;20061;-68
2020/12/14 09:06:35;;;;;;;4.35;2.28;;;7.10;99.90;;;;;;4980395;28;20077;-67
2020/12/14 09:09:13;;;;;;;4.65;1.70;;;7.10;99.90;;;;;;4980195;28;20327;-67
2020/12/14 09:11:47;;;;;;;5.70;3.15;;;7.20;99.90;;;;;;4980020;28;20035;-67
2020/12/14 09:14:23;;;;;;;5.88;1.52;;;7.20;99.90;;;;;;4980440;28;20038;-68
2020/12/14 09:16:56;;;;;;;7.50;2.10;;;7.30;99.90;;;;;;4995038;28;20023;-67
2020/12/14 09:19:24;;;;;;;5.78;1.90;;;7.30;99.90;;;;;;4980297;28;20019;-67
2020/12/14 09:21:53;;;;;;;3.38;1.27;;;7.30;99.90;;;;;;4979833;28;20019;-67
2020/12/14 09:24:23;;;;;;;3.63;1.85;;;7.40;99.90;;;;;;4995123;28;20419;-68
2020/12/14 09:26:54;;;;;;;4.63;1.42;;;7.40;99.90;;;;;;4979679;28;20431;-68
2020/12/14 09:29:21;;;;;;;4.72;1.58;;;7.50;99.90;;;;;;4979606;28;20023;-68
2020/12/14 09:31:49;;;;;;;6.82;1.40;;;7.40;99.90;;;;;;4980015;28;20023;-68
2020/12/14 09:34:17;;;;;;;4.55;1.98;;;7.50;99.90;;;;;;4980785;28;20210;-68
2020/12/14 09:36:45;;;;;;;2.50;1.38;;;7.50;99.90;;;;;;4993924;28;20023;-68
2020/12/14 09:39:13;;;;;;;3.60;1.52;;;7.50;99.90;;;;;;4994681;28;20030;-68
2020/12/14 09:41:41;;;;;;;4.25;1.75;;;7.60;99.90;;;;;;4980178;28;20022;-68
2020/12/14 09:44:09;;;;;;;4.32;1.63;;;7.60;99.90;;;;;;4979656;28;20054;-68
2020/12/14 09:46:36;;;;;;;3.65;1.52;;;7.70;99.90;;;;;;4979889;28;20057;-68
2020/12/14 09:49:03;;;;;;;5.18;2.67;;;7.80;99.90;;;;;;4978894;28;20408;-68
2020/12/14 09:51:34;;;;;;;4.07;1.70;;;7.80;99.90;;;;;;4978352;28;20027;-68
2020/12/14 09:54:03;;;;;;;5.47;1.75;;;7.90;99.90;;;;;;4979211;28;20117;-68
2020/12/14 09:56:30;;;;;;;4.05;1.58;;;7.90;99.90;;;;;;4979145;28;20411;-68
2020/12/14 09:58:58;;;;;;;2.53;1.17;;;7.90;99.90;;;;;;4979327;28;20101;-68
2020/12/14 10:01:30;;;;;;;3.00;1.52;;;7.80;99.90;;;;;;4994354;28;20058;-68
2020/12/14 10:04:01;;;;;;;8.68;1.50;;;7.80;99.90;;;;;;4994819;28;20057;-68
2020/12/14 10:06:29;;;;;;;3.97;1.38;;;7.70;99.90;;;;;;4979453;28;20046;-67
2020/12/14 10:08:56;;;;;;;5.30;1.70;;;7.60;99.90;;;;;;4979853;28;20114;-65
2020/12/14 10:11:25;;;;;;;7.00;2.60;;;7.50;99.90;;;;;;4978276;28;20332;-67
2020/12/14 10:13:53;;;;;;;5.40;1.83;;;7.40;99.90;;;;;;4979338;28;20342;-67
2020/12/14 10:16:21;;;;;;;5.20;2.20;;;7.30;99.90;;;;;;4978743;28;20041;-67
2020/12/14 10:18:48;;;;;;;4.70;1.73;;;7.20;99.90;;;;;;4977695;28;20030;-67
2020/12/14 10:21:17;;;;;;;3.88;1.45;;;7.10;99.90;;;;;;4978737;28;20323;-67
2020/12/14 10:23:45;;;;;;;3.33;2.03;;;7.00;99.90;;;;;;4979232;28;20027;-67
2020/12/14 10:26:13;;;;;;;3.30;1.48;;;6.90;99.90;;;;;;4979201;28;20306;-67
2020/12/14 10:28:41;;;;;;;4.38;2.15;;;6.90;99.90;;;;;;4978866;28;20060;-67
2020/12/14 10:31:09;;;;;;;4.75;1.70;;;6.90;99.90;;;;;;4993625;28;20026;-68
2020/12/14 10:33:38;;;;;;;4.68;2.13;;;6.80;99.90;;;;;;4979010;28;20101;-68
2020/12/14 10:36:12;;;;;;;6.20;3.20;;;6.80;99.90;;;;;;4978480;28;20027;-67
2020/12/14 10:38:40;;;;;;;7.38;3.05;;;6.90;99.90;;;;;;4978280;28;20070;-67
2020/12/14 10:41:08;;;;;;;10.02;4.22;;;6.90;99.90;;;;;;4978433;28;20023;-67
2020/12/14 10:43:36;;;;;;;6.65;3.22;;;6.90;99.90;;;;;;4993479;28;20109;-67
2020/12/14 10:46:03;;;;;;;21.88;8.27;;;6.90;99.90;;;;;;4993492;28;20023;-67
2020/12/14 10:48:31;;;;;;;22.15;6.03;;;6.90;99.90;;;;;;4978574;28;20143;-67
2020/12/14 10:50:59;;;;;;;11.13;3.70;;;6.90;99.90;;;;;;4978219;28;20031;-67
2020/12/14 10:53:27;;;;;;;15.50;4.72;;;6.90;99.90;;;;;;4978137;28;20109;-67
2020/12/14 10:55:55;;;;;;;20.90;5.78;;;6.80;99.90;;;;;;4978961;28;20312;-67
2020/12/14 10:58:22;;;;;;;10.55;4.90;;;6.90;99.90;;;;;;4977945;28;20038;-67
2020/12/14 11:00:50;;;;;;;10.95;4.45;;;6.80;99.90;;;;;;4977712;28;20046;-68
2020/12/14 11:03:18;;;;;;;16.25;4.22;;;6.80;99.90;;;;;;4978261;28;20022;-68
2020/12/14 11:05:46;;;;;;;19.48;5.18;;;6.80;99.90;;;;;;4978412;28;20026;-68
2020/12/14 11:08:14;;;;;;;8.80;2.58;;;6.80;99.90;;;;;;4977894;28;20026;-68
2020/12/14 11:10:42;;;;;;;5.75;2.17;;;6.80;99.90;;;;;;4978455;28;20113;-68
2020/12/14 11:13:10;;;;;;;20.42;5.70;;;6.90;99.90;;;;;;4992960;28;20027;-68
2020/12/14 11:15:37;;;;;;;16.33;4.43;;;6.90;99.90;;;;;;4993059;28;20077;-68
2020/12/14 11:18:05;;;;;;;11.32;4.35;;;6.80;99.90;;;;;;4978356;28;20113;-68
2020/12/14 11:20:34;;;;;;;7.97;3.33;;;6.80;99.90;;;;;;4977848;28;20023;-67
2020/12/14 11:23:02;;;;;;;4.35;2.28;;;6.80;99.90;;;;;;4977731;28;20430;-68
2020/12/14 11:25:29;;;;;;;15.18;4.65;;;6.80;99.90;;;;;;4977628;28;20027;-68
2020/12/14 11:27:57;;;;;;;11.23;4.05;;;6.80;99.90;;;;;;4978021;28;20371;-68
2020/12/14 11:30:25;;;;;;;11.50;3.40;;;6.80;99.90;;;;;;4977713;28;20482;-67
2020/12/14 11:32:53;;;;;;;7.63;3.53;;;6.80;99.90;;;;;;4977736;28;20338;-67
2020/12/14 11:35:20;;;;;;;6.45;3.25;;;6.90;99.90;;;;;;4977936;28;20427;-67
2020/12/14 11:37:48;;;;;;;5.47;2.42;;;6.90;99.90;;;;;;4977977;28;20041;-68
2020/12/14 11:40:15;;;;;;;3.50;1.33;;;6.90;99.90;;;;;;4977632;28;20020;-68
2020/12/14 11:42:42;;;;;;;5.30;2.10;;;6.90;99.90;;;;;;4977622;28;20054;-67
2020/12/14 11:45:10;;;;;;;5.47;1.75;;;6.90;99.90;;;;;;4977530;28;20019;-68
2020/12/14 11:47:38;;;;;;;5.28;1.98;;;6.90;99.90;;;;;;4978126;28;20101;-68
2020/12/14 11:50:06;;;;;;;6.55;1.80;;;6.90;99.90;;;;;;4977558;28;20027;-68
2020/12/14 11:52:34;;;;;;;4.05;1.73;;;7.00;99.90;;;;;;4977552;28;20031;-68
2020/12/14 11:55:03;;;;;;;5.55;1.48;;;7.00;99.90;;;;;;4992813;28;20027;-68
2020/12/14 11:57:30;;;;;;;4.38;1.63;;;7.00;99.90;;;;;;4977366;28;20038;-68
2020/12/14 11:59:59;;;;;;;5.68;1.48;;;7.00;99.90;;;;;;4980701;28;20106;-69
2020/12/14 12:02:27;;;;;;;3.40;1.83;;;7.10;99.90;;;;;;4981182;28;20186;-68
2020/12/14 12:04:54;;;;;;;7.88;2.65;;;7.10;99.90;;;;;;4981287;28;20430;-68
2020/12/14 12:07:22;;;;;;;10.90;3.17;;;7.20;99.90;;;;;;4981466;28;20435;-68
2020/12/14 12:09:50;;;;;;;13.50;4.43;;;7.30;99.90;;;;;;4981274;28;20109;-68
2020/12/14 12:12:18;;;;;;;6.55;2.65;;;7.40;99.90;;;;;;4981373;28;20027;-67
2020/12/14 12:14:46;;;;;;;7.03;2.58;;;7.50;99.90;;;;;;4981639;28;20323;-68
2020/12/14 12:17:14;;;;;;;19.35;6.78;;;7.50;99.90;;;;;;4980974;28;20327;-67
2020/12/14 12:19:42;;;;;;;6.30;3.03;;;7.70;99.90;;;;;;4981410;28;20035;-68
2020/12/14 12:22:10;;;;;;;5.22;1.90;;;7.80;99.90;;;;;;4996113;28;20019;-68
2020/12/14 12:24:38;;;;;;;3.83;1.90;;;7.80;99.90;;;;;;4996103;28;20109;-67
2020/12/14 12:27:05;;;;;;;4.57;1.70;;;7.90;99.90;;;;;;4981116;28;20026;-68
2020/12/14 12:29:33;;;;;;;3.17;1.52;;;7.90;99.90;;;;;;4980957;28;20069;-67
2020/12/14 12:32:01;;;;;;;3.15;1.50;;;7.90;99.90;;;;;;4980663;28;20039;-68
2020/12/14 12:34:29;;;;;;;3.85;1.95;;;7.90;99.90;;;;;;4980615;28;20041;-68
2020/12/14 12:36:58;;;;;;;3.03;1.35;;;7.90;99.90;;;;;;4980640;28;20058;-67
2020/12/14 12:39:26;;;;;;;2.90;1.60;;;7.90;99.90;;;;;;4981481;28;20027;-68
2020/12/14 12:41:55;;;;;;;5.15;1.83;;;7.90;99.90;;;;;;4980980;28;20018;-67
2020/12/14 12:44:23;;;;;;;3.55;1.70;;;8.00;99.90;;;;;;4980537;28;20030;-67
2020/12/14 12:46:51;;;;;;;3.58;1.60;;;8.10;99.90;;;;;;4982235;28;20046;-68
2020/12/14 12:49:18;;;;;;;3.15;1.60;;;8.10;99.90;;;;;;4995812;28;20054;-67
2020/12/14 12:51:58;;;;;;;3.45;1.77;;;8.10;99.90;;;;;;4980006;28;20019;-67
2020/12/14 12:54:27;;;;;;;2.97;1.40;;;8.10;99.90;;;;;;4980982;28;20023;-67
2020/12/14 12:56:56;;;;;;;3.90;1.38;;;8.20;99.90;;;;;;4980789;28;20022;-67
2020/12/14 12:59:24;;;;;;;5.43;2.13;;;8.20;99.90;;;;;;4980175;28;20135;-67
2020/12/14 13:01:54;;;;;;;3.53;1.95;;;8.20;99.90;;;;;;4979909;28;20043;-67
2020/12/14 13:04:22;;;;;;;5.13;2.45;;;8.20;99.90;;;;;;4980487;28;20026;-68
2020/12/14 13:06:51;;;;;;;5.63;2.05;;;8.20;99.90;;;;;;4981795;28;20019;-67